Time;durP1;ratioP1;P1;durP2;ratioP2;P2;SDS_P1;SDS_P2;PMS_P1;PMS_P2;Temp;Humidity;BMP_temperature;BMP_pressure;BME280_temperature;BME280_humidity;BME280_pressure;Samples;Min_cycle;Max_cycle;Signal;HPM_P1;HPM_P2
2022/01/13 00:03:55;;;;;;;29.38;16.25;;;;;;;2.10;92.51;102879.66;4923478;29;20095;-87
2022/01/13 00:06:26;;;;;;;30.40;17.65;;;;;;;2.08;92.94;102870.88;4903886;29;20052;-89
2022/01/13 00:09:17;;;;;;;29.63;17.20;;;;;;;2.17;93.02;102876.38;4909851;29;20152;-88
2022/01/13 00:12:10;;;;;;;29.48;17.42;;;;;;;1.91;92.39;102825.09;4908460;29;20053;-88
2022/01/13 00:26:01;;;;;;;29.25;16.33;;;;;;;1.88;92.46;102839.00;4890794;29;20060;-88
2022/01/13 00:28:33;;;;;;;29.08;16.40;;;;;;;1.76;92.61;102808.16;4894226;29;20053;-88
2022/01/13 00:31:35;;;;;;;29.77;17.27;;;;;;;1.93;92.40;102831.25;4896314;29;20489;-89
2022/01/13 00:34:10;;;;;;;26.60;15.63;;;;;;;1.84;92.72;102815.34;4895284;29;20089;-88
2022/01/13 00:36:49;;;;;;;29.27;15.98;;;;;;;1.81;92.72;102807.41;4895022;29;20092;-87
2022/01/13 00:39:23;;;;;;;25.00;15.23;;;;;;;1.95;92.21;102835.69;4901914;29;20079;-88
2022/01/13 00:41:57;;;;;;;25.65;15.50;;;;;;;2.19;92.67;102879.03;4897732;29;20497;-88
2022/01/13 00:44:27;;;;;;;27.80;15.98;;;;;;;1.94;92.12;102833.91;4903186;29;20359;-88
2022/01/13 00:47:01;;;;;;;27.30;16.27;;;;;;;2.17;91.85;102867.63;4905253;29;20066;-89
2022/01/13 00:49:35;;;;;;;25.55;15.07;;;;;;;2.04;91.99;102848.13;4904579;29;20580;-89
2022/01/13 00:52:04;;;;;;;25.42;16.30;;;;;;;1.79;92.31;102822.16;4902029;29;21147;-89
2022/01/13 00:54:41;;;;;;;28.85;16.45;;;;;;;1.93;92.89;102847.81;4900152;29;20132;-88
2022/01/13 00:57:31;;;;;;;30.58;16.63;;;;;;;2.08;93.27;102870.88;4898266;29;20088;-89
2022/01/13 01:00:03;;;;;;;30.45;16.98;;;;;;;1.97;92.50;102854.91;4898741;29;20553;-89
2022/01/13 01:02:31;;;;;;;27.23;16.05;;;;;;;1.97;92.86;102861.88;4900385;29;20067;-89
2022/01/13 01:05:08;;;;;;;31.92;17.08;;;;;;;1.79;93.23;102833.50;4899083;29;20075;-88
2022/01/13 01:07:35;;;;;;;28.63;16.10;;;;;;;1.92;93.07;102856.50;4886565;29;20508;-89
2022/01/13 01:10:07;;;;;;;25.33;16.00;;;;;;;1.81;93.13;102833.53;4894031;29;20064;-89
2022/01/13 01:13:10;;;;;;;27.65;15.70;;;;;;;1.80;92.89;102829.16;4898382;29;20066;-89
2022/01/13 01:15:47;;;;;;;;;;;;;;;2.13;92.69;102891.91;4894566;29;20052;-89
2022/01/13 01:18:38;;;;;;;29.77;16.58;;;;;;;2.15;93.56;102885.91;4892981;29;19923;-88
2022/01/13 01:27:06;;;;;;;;;;;;;;;;;;;;;
2022/01/13 01:29:42;;;;;;;31.52;18.13;;;;;;;1.90;93.12;102865.13;4893103;29;20438;-88
2022/01/13 01:32:20;;;;;;;34.70;18.30;;;;;;;1.73;93.48;102842.03;4894706;29;20057;-87
2022/01/13 01:35:12;;;;;;;29.15;18.05;;;;;;;2.04;93.50;102905.63;4906192;29;20049;-88
2022/01/13 01:37:43;;;;;;;31.35;18.30;;;;;;;1.73;93.30;102847.25;4900793;29;20075;-88
2022/01/13 01:40:31;;;;;;;33.42;19.50;;;;;;;1.97;93.57;102899.34;4886110;29;20112;-88
2022/01/13 01:43:08;;;;;;;32.20;18.58;;;;;;;2.05;93.50;102902.16;4891108;29;20060;-89
2022/01/13 01:45:43;;;;;;;32.63;18.17;;;;;;;1.90;93.69;102872.97;4893658;29;20091;-88
2022/01/13 01:48:21;;;;;;;33.00;18.77;;;;;;;1.90;93.63;102865.13;4895020;29;20060;-88
2022/01/13 01:50:58;;;;;;;31.00;18.17;;;;;;;2.05;93.51;102883.84;4893284;29;20059;-87
2022/01/13 01:53:30;;;;;;;31.33;16.98;;;;;;;1.99;93.18;102862.78;4896212;29;20044;-89
2022/01/13 01:56:05;;;;;;;33.28;18.52;;;;;;;1.74;92.60;102822.91;4899377;29;20080;-88
2022/01/13 01:58:33;;;;;;;31.38;18.00;;;;;;;1.91;92.77;102856.47;4899380;29;20059;-88
2022/01/13 02:01:10;;;;;;;29.95;17.98;;;;;;;1.83;92.92;102852.75;4906064;29;20060;-88
2022/01/13 02:03:38;;;;;;;27.88;16.38;;;;;;;1.92;93.15;102863.44;4906173;29;20536;-88
2022/01/13 02:06:23;;;;;;;30.95;18.05;;;;;;;1.83;93.68;102844.91;4892408;29;20056;-87
2022/01/13 02:09:15;;;;;;;32.92;18.13;;;;;;;2.03;92.63;102885.56;4897396;29;20048;-88
2022/01/13 02:12:29;;;;;;;30.73;17.67;;;;;;;1.82;93.28;102838.81;4896719;29;20056;-88
2022/01/13 02:17:46;;;;;;;28.23;16.75;;;;;;;1.68;92.50;102822.75;4908204;29;20586;-88
2022/01/13 02:20:20;;;;;;;28.23;16.40;;;;;;;1.92;92.62;102842.56;4896814;29;20496;-88
2022/01/13 02:25:56;;;;;;;26.85;16.75;;;;;;;1.68;93.04;102801.88;4902888;29;20501;-88
2022/01/13 02:28:24;;;;;;;29.77;17.35;;;;;;;1.69;92.96;102795.78;4903820;29;20131;-88
2022/01/13 02:30:54;;;;;;;32.00;18.13;;;;;;;1.92;91.98;102829.47;4914993;29;20052;-88
2022/01/13 02:33:35;;;;;;;31.30;17.67;;;;;;;1.98;92.10;102845.34;4914294;29;20057;-88
2022/01/13 02:36:22;;;;;;;32.53;18.42;;;;;;;1.89;91.90;102834.66;4899906;29;20083;-89
2022/01/13 02:39:07;;;;;;;29.65;16.70;;;;;;;2.09;92.38;102864.81;4896763;29;20163;-89
2022/01/13 02:42:03;;;;;;;29.83;17.60;;;;;;;1.92;91.77;102846.06;4892633;29;20048;-89
2022/01/13 02:45:01;;;;;;;29.90;17.77;;;;;;;1.93;92.49;102844.31;4890077;29;20095;-88
2022/01/13 02:48:27;;;;;;;30.17;17.63;;;;;;;1.75;91.67;102821.19;4892520;29;20064;-88
2022/01/13 02:51:03;;;;;;;27.02;15.98;;;;;;;2.05;91.43;102876.91;4905761;29;20052;-89
2022/01/13 02:53:49;;;;;;;27.25;16.70;;;;;;;1.92;91.80;102855.63;4897105;29;20139;-89
2022/01/13 02:56:30;;;;;;;;;;;;;;;2.07;91.77;102880.44;4910579;29;20057;-88
2022/01/13 02:59:24;;;;;;;;;;;;;;;;;;;;;
2022/01/13 03:02:08;;;;;;;29.90;17.25;;;;;;;1.91;91.79;102839.06;4843300;29;20065;-88
2022/01/13 03:04:50;;;;;;;28.08;16.20;;;;;;;1.77;91.90;102812.56;4849051;29;20078;-87
2022/01/13 03:07:30;;;;;;;28.38;16.70;;;;;;;2.12;91.38;102880.56;4847178;29;20057;-88
2022/01/13 03:09:58;;;;;;;28.55;15.75;;;;;;;1.81;91.55;102810.03;4844519;29;20045;-88
2022/01/13 03:15:48;;;;;;;28.42;16.30;;;;;;;1.98;91.62;102843.63;4837312;29;20063;-88
2022/01/13 03:18:28;;;;;;;26.05;16.02;;;;;;;1.95;90.74;102830.47;4855362;29;20053;-89
2022/01/13 03:21:26;;;;;;;30.05;16.95;;;;;;;1.87;91.36;102821.53;4836925;29;20563;-88
2022/01/13 03:24:09;;;;;;;28.42;16.25;;;;;;;1.87;91.60;102820.66;4854267;29;20072;-89
2022/01/13 03:26:49;;;;;;;28.63;16.45;;;;;;;2.16;91.16;102866.75;4852300;29;20072;-88
2022/01/13 03:29:27;;;;;;;29.15;16.90;;;;;;;2.14;91.27;102870.16;4837902;29;20057;-89
2022/01/13 03:32:03;;;;;;;31.80;17.92;;;;;;;1.94;91.69;102836.53;4837773;29;20073;-89
2022/01/13 03:34:44;;;;;;;29.90;17.75;;;;;;;1.77;91.97;102809.06;4842115;29;20930;-88
2022/01/13 03:37:17;;;;;;;30.55;17.40;;;;;;;2.11;91.51;102868.34;4837055;29;20425;-89
2022/01/13 03:40:01;;;;;;;29.90;17.02;;;;;;;2.10;91.42;102880.53;4876865;29;20052;-89
2022/01/13 03:42:43;;;;;;;27.33;15.88;;;;;;;1.90;91.32;102839.00;4895318;29;20056;-88
2022/01/13 03:45:27;;;;;;;32.08;17.38;;;;;;;1.81;91.83;102815.25;4891833;29;20049;-89
2022/01/13 03:48:09;;;;;;;30.45;17.33;;;;;;;2.02;91.55;102850.69;4896007;29;20457;-88
2022/01/13 03:50:55;;;;;;;30.33;17.23;;;;;;;1.88;91.99;102806.75;4896681;29;20089;-89
2022/01/13 03:54:17;;;;;;;29.33;17.13;;;;;;;2.26;91.61;102871.38;4907199;29;20060;-88
2022/01/13 03:57:27;;;;;;;27.63;16.80;;;;;;;2.33;90.96;102862.84;4900374;29;20135;-88
2022/01/13 04:00:50;;;;;;;30.15;17.75;;;;;;;2.32;89.72;102853.25;4899633;29;20449;-88
2022/01/13 04:03:26;;;;;;;27.25;16.30;;;;;;;2.27;89.11;102849.63;4904601;29;20084;-88
2022/01/13 04:06:38;;;;;;;26.70;15.57;;;;;;;2.06;89.46;102815.94;4898821;29;20139;-88
2022/01/13 04:09:34;;;;;;;27.05;16.00;;;;;;;2.23;89.62;102842.53;4901676;29;20049;-88
2022/01/13 04:12:20;;;;;;;26.50;15.63;;;;;;;1.99;89.80;102805.31;4914784;29;20133;-88
2022/01/13 04:15:01;;;;;;;28.10;16.55;;;;;;;1.84;90.60;102771.81;4903449;29;20053;-87
2022/01/13 04:20:27;;;;;;;29.15;17.38;;;;;;;2.13;90.62;102824.84;4898718;29;20064;-88
2022/01/13 04:23:24;;;;;;;31.23;18.05;;;;;;;2.05;89.51;102813.28;4891088;29;20112;-89
2022/01/13 04:26:05;;;;;;;30.23;18.02;;;;;;;2.11;89.82;102816.06;4898133;29;20840;-88
2022/01/13 04:28:46;;;;;;;33.63;19.13;;;;;;;2.22;90.74;102835.53;4903301;29;20511;-88
2022/01/13 04:31:20;;;;;;;36.90;19.83;;;;;;;2.20;90.76;102841.59;4896444;29;20108;-88
2022/01/13 04:34:01;;;;;;;33.50;19.30;;;;;;;2.04;91.32;102808.94;4913204;29;20056;-88
2022/01/13 04:36:32;;;;;;;36.88;20.55;;;;;;;1.89;91.71;102779.78;4903327;29;20057;-88
2022/01/13 04:39:24;;;;;;;39.78;21.48;;;;;;;2.03;91.12;102810.66;4907372;29;20051;-87
2022/01/13 04:42:07;;;;;;;39.08;21.80;;;;;;;1.99;91.08;102807.91;4901612;29;20052;-88
2022/01/13 04:44:47;;;;;;;37.55;21.35;;;;;;;2.17;91.63;102845.00;4910603;29;20060;-88
2022/01/13 04:47:18;;;;;;;42.35;22.92;;;;;;;2.02;92.27;102800.16;4896183;29;20053;-88
2022/01/13 04:50:03;;;;;;;40.92;23.23;;;;;;;1.99;91.93;102800.06;4898932;29;20052;-88
2022/01/13 04:52:47;;;;;;;45.10;24.67;;;;;;;1.98;91.75;102803.53;4896664;29;20056;-88
2022/01/13 04:55:52;;;;;;;42.63;23.17;;;;;;;1.82;92.65;102783.06;4906271;29;20082;-86
2022/01/13 04:58:39;;;;;;;44.30;24.58;;;;;;;1.84;92.84;102778.78;4908160;29;20052;-88
2022/01/13 05:01:24;;;;;;;48.17;25.13;;;;;;;2.20;92.39;102832.00;4898187;29;20053;-88
2022/01/13 05:04:10;;;;;;;;;;;;;;;;;;;;;
2022/01/13 05:06:43;;;;;;;46.60;25.33;;;;;;;1.91;92.75;102788.53;4902176;29;20081;-86
2022/01/13 05:09:25;;;;;;;33.67;18.98;;;;;;;2.20;92.87;102846.81;4911590;29;20048;-88
2022/01/13 05:12:01;;;;;;;46.83;25.15;;;;;;;2.09;92.85;102818.66;4909473;29;20052;-88
2022/01/13 05:14:37;;;;;;;44.20;24.25;;;;;;;1.95;92.20;102803.44;4899307;29;20123;-88
2022/01/13 05:17:34;;;;;;;40.35;23.08;;;;;;;1.99;92.68;102824.47;4892241;29;20061;-87
2022/01/13 05:20:14;;;;;;;42.30;24.23;;;;;;;1.99;93.00;102826.22;4888472;29;20090;-88
2022/01/13 05:22:46;;;;;;;40.55;23.30;;;;;;;1.83;93.01;102800.50;4896687;29;20052;-88
2022/01/13 05:25:17;;;;;;;36.28;21.50;;;;;;;1.87;93.13;102800.66;4893239;29;20062;-88
2022/01/13 05:27:47;;;;;;;37.90;22.80;;;;;;;1.94;92.74;102831.31;4901528;29;20556;-87
2022/01/13 05:30:22;;;;;;;36.22;21.05;;;;;;;1.81;92.58;102795.25;4892557;29;20048;-87
2022/01/13 05:32:54;;;;;;;37.25;21.13;;;;;;;1.76;92.33;102797.72;4899990;29;20056;-88
2022/01/13 05:35:21;;;;;;;39.90;21.92;;;;;;;2.02;92.38;102844.59;4902682;29;20066;-88
2022/01/13 05:38:00;;;;;;;34.53;19.65;;;;;;;2.16;91.37;102838.00;4907964;29;20052;-87
2022/01/13 05:40:31;;;;;;;36.50;19.92;;;;;;;2.02;91.38;102826.31;4891630;29;20408;-88
2022/01/13 05:43:09;;;;;;;34.13;18.08;;;;;;;2.08;91.02;102853.47;4899882;29;20135;-87
2022/01/13 05:45:44;;;;;;;32.33;18.27;;;;;;;1.97;91.22;102839.22;4897871;29;20048;-88
2022/01/13 05:48:21;;;;;;;30.10;16.92;;;;;;;1.96;90.58;102841.78;4890891;29;20066;-88
2022/01/13 05:51:02;;;;;;;27.30;15.90;;;;;;;1.87;90.94;102825.88;4898356;29;20479;-88
2022/01/13 05:53:40;;;;;;;24.20;15.02;;;;;;;1.75;91.22;102814.22;4890639;29;20492;-88
2022/01/13 05:56:13;;;;;;;25.65;14.68;;;;;;;1.94;91.52;102838.25;4902228;29;20071;-87
2022/01/13 05:59:01;;;;;;;24.42;14.23;;;;;;;1.81;90.56;102825.69;4892934;29;20068;-88
2022/01/13 06:01:36;;;;;;;27.58;15.63;;;;;;;2.10;91.17;102882.25;4912279;29;20044;-88
2022/01/13 06:04:10;;;;;;;26.52;15.52;;;;;;;1.71;91.02;102822.84;4893497;29;20586;-87
2022/01/13 06:06:52;;;;;;;23.48;14.50;;;;;;;1.94;91.30;102856.53;4892973;29;20088;-87
2022/01/13 06:09:21;;;;;;;22.45;13.18;;;;;;;1.95;90.89;102845.25;4889784;29;20147;-88
2022/01/13 06:12:02;;;;;;;25.45;15.18;;;;;;;2.13;91.00;102871.88;4892812;29;20060;-88
2022/01/13 06:14:48;;;;;;;23.55;14.60;;;;;;;1.80;91.56;102810.88;4899469;29;20052;-88
2022/01/13 06:17:46;;;;;;;23.20;14.45;;;;;;;2.13;91.14;102876.22;4891868;29;20138;-87
2022/01/13 06:20:22;;;;;;;25.65;14.77;;;;;;;1.84;91.63;102829.28;4891950;29;20139;-88
2022/01/13 06:23:02;;;;;;;25.98;15.15;;;;;;;1.96;91.15;102845.28;4896723;29;20055;-88
2022/01/13 06:25:55;;;;;;;23.08;14.35;;;;;;;1.94;90.45;102835.63;4901528;29;20120;-87
2022/01/13 06:28:54;;;;;;;21.65;13.73;;;;;;;1.81;91.27;102810.03;4898819;29;20124;-90
2022/01/13 06:31:57;;;;;;;22.50;14.00;;;;;;;2.06;91.31;102865.59;4903345;29;20048;-90
2022/01/13 06:34:52;;;;;;;22.08;12.90;;;;;;;2.07;91.36;102882.16;4907281;29;20091;-90
2022/01/13 06:38:38;;;;;;;;;;;;;;;;;;;;;
2022/01/13 06:41:28;;;;;;;25.38;15.15;;;;;;;1.89;91.59;102861.63;4890967;29;20582;-87
2022/01/13 06:44:13;;;;;;;25.08;15.90;;;;;;;1.76;91.38;102841.25;4900205;29;21948;-89
2022/01/13 06:49:41;;;;;;;26.20;16.60;;;;;;;1.67;92.82;102854.94;4898944;29;20068;-88
2022/01/13 06:52:17;;;;;;;28.77;17.60;;;;;;;1.49;92.80;102820.47;4896343;29;20044;-88
2022/01/13 06:54:56;;;;;;;31.48;19.27;;;;;;;1.77;94.11;102893.53;4900305;29;20052;-88
2022/01/13 06:57:25;;;;;;;32.42;19.25;;;;;;;1.48;93.23;102831.75;4899465;29;20104;-88
2022/01/13 07:02:59;;;;;;;32.75;17.95;;;;;;;1.54;94.39;102858.03;4896870;29;20056;-89
2022/01/13 07:05:46;;;;;;;33.22;19.55;;;;;;;1.35;94.91;102821.78;4901529;29;20092;-88
2022/01/13 07:08:18;;;;;;;30.92;19.90;;;;;;;1.38;94.68;102837.53;4905279;29;20097;-88
2022/01/13 07:10:48;;;;;;;28.98;18.77;;;;;;;1.34;94.87;102839.16;4898463;29;20053;-88
2022/01/13 07:13:22;;;;;;;30.35;18.48;;;;;;;1.56;94.83;102874.66;4906773;29;20036;-88
2022/01/13 07:15:51;;;;;;;28.50;17.90;;;;;;;1.36;94.00;102852.28;4919577;29;20051;-87
2022/01/13 07:18:22;;;;;;;31.50;18.42;;;;;;;1.57;94.62;102888.59;4906550;29;20120;-87
2022/01/13 07:21:03;;;;;;;33.88;19.27;;;;;;;1.74;93.72;102909.09;4900880;29;20057;-88
2022/01/13 07:23:46;;;;;;;31.73;19.08;;;;;;;1.54;93.98;102894.59;4896716;29;20068;-90
2022/01/13 07:26:27;;;;;;;29.00;18.35;;;;;;;1.71;93.64;102921.22;4898882;29;20048;-88
2022/01/13 07:29:08;;;;;;;29.47;18.33;;;;;;;1.48;93.79;102878.75;4898502;29;20120;-88
2022/01/13 07:31:37;;;;;;;30.55;18.92;;;;;;;1.36;93.74;102867.94;4905341;29;20484;-88
2022/01/13 07:34:07;;;;;;;33.25;21.00;;;;;;;1.51;94.29;102897.13;4897460;29;20153;-89
2022/01/13 07:36:39;;;;;;;36.72;22.92;;;;;;;1.45;94.63;102899.53;4902793;29;20066;-89
2022/01/13 07:39:08;;;;;;;34.13;20.80;;;;;;;1.39;95.15;102881.09;4903361;29;20087;-86
2022/01/13 07:41:42;;;;;;;35.63;21.30;;;;;;;1.45;95.39;102889.09;4904479;29;20108;-89
2022/01/13 07:44:10;;;;;;;33.40;20.00;;;;;;;1.47;95.52;102878.69;4906418;29;20103;-90
2022/01/13 07:46:39;;;;;;;32.08;19.67;;;;;;;1.58;95.69;102904.28;4911559;29;20091;-87
2022/01/13 07:49:16;;;;;;;28.80;17.90;;;;;;;1.73;93.98;102917.78;4903909;29;20057;-88
2022/01/13 07:51:50;;;;;;;29.23;18.08;;;;;;;1.60;94.02;102891.25;4903704;29;20148;-88
2022/01/13 07:54:28;;;;;;;28.38;17.25;;;;;;;1.53;94.00;102882.38;4891401;29;20133;-91
2022/01/13 07:57:20;;;;;;;32.47;19.23;;;;;;;1.63;94.12;102899.19;4898423;29;20052;-90
2022/01/13 08:00:14;;;;;;;29.30;19.00;;;;;;;1.70;94.39;102906.38;4898852;29;20461;-90
2022/01/13 08:15:51;;;;;;;34.50;19.70;;;;;;;1.83;94.36;102912.84;4921233;29;20060;-90
2022/01/13 08:21:04;;;;;;;27.80;18.98;;;;;;;1.95;94.72;102934.97;4921515;29;20045;-88
2022/01/13 08:23:31;;;;;;;30.17;18.10;;;;;;;1.92;92.76;102911.38;4909557;29;20143;-90
2022/01/13 08:25:58;;;;;;;28.48;17.63;;;;;;;1.82;92.84;102896.28;4906172;29;20062;-90
2022/01/13 08:28:28;;;;;;;32.17;18.80;;;;;;;1.96;93.33;102923.69;4901040;29;20064;-91
2022/01/13 08:30:58;;;;;;;32.10;18.88;;;;;;;2.07;93.80;102929.22;4902521;29;20543;-88
2022/01/13 08:33:25;;;;;;;;;;;;;;;2.05;93.06;102931.78;4904813;29;20085;-88
2022/01/13 08:35:53;;;;;;;32.05;19.05;;;;;;;1.91;92.71;102887.81;4897215;29;20026;-88
2022/01/13 08:38:21;;;;;;;32.95;20.17;;;;;;;1.86;92.83;102886.81;4902077;29;20859;-89
2022/01/13 08:40:56;;;;;;;36.10;20.88;;;;;;;1.95;92.56;102929.75;4911704;29;20651;-89
2022/01/13 08:43:24;;;;;;;35.03;21.75;;;;;;;1.62;93.58;102880.03;4907075;29;20163;-90
2022/01/13 08:45:51;;;;;;;36.75;23.05;;;;;;;1.60;93.85;102868.66;4902661;29;20100;-90
2022/01/13 08:48:19;;;;;;;35.60;22.05;;;;;;;1.64;93.92;102862.69;4907467;29;20108;-88
2022/01/13 08:50:47;;;;;;;35.63;21.63;;;;;;;1.89;93.66;102903.44;4888302;29;20041;-89
2022/01/13 08:53:15;;;;;;;34.47;20.90;;;;;;;2.10;93.03;102921.47;4903235;29;20147;-91
2022/01/13 08:55:42;;;;;;;33.53;20.95;;;;;;;1.90;91.96;102899.09;4909879;29;20048;-90
2022/01/13 08:58:09;;;;;;;35.50;22.27;;;;;;;1.92;92.59;102911.38;4910351;29;20047;-91
2022/01/13 09:00:37;;;;;;;33.60;20.45;;;;;;;2.00;92.91;102929.91;4910669;29;20052;-89
2022/01/13 09:03:08;;;;;;;34.15;20.42;;;;;;;2.05;92.84;102937.00;4906039;29;20052;-90
2022/01/13 09:05:38;;;;;;;34.85;21.85;;;;;;;1.81;93.13;102896.25;4902552;29;20064;-89
2022/01/13 09:08:07;;;;;;;35.13;21.63;;;;;;;1.69;93.29;102868.03;4903320;29;20135;-89
2022/01/13 09:10:33;;;;;;;37.45;22.92;;;;;;;1.95;93.31;102913.19;4900008;29;20049;-89
2022/01/13 09:13:01;;;;;;;36.20;20.83;;;;;;;1.90;93.11;102905.22;4899000;29;20060;-88
2022/01/13 09:15:37;;;;;;;34.70;22.15;;;;;;;1.78;92.75;102881.34;4897729;29;20168;-89
2022/01/13 09:18:12;;;;;;;35.72;21.00;;;;;;;2.10;92.50;102935.41;4909002;29;20060;-89
2022/01/13 09:20:39;;;;;;;38.05;22.90;;;;;;;2.02;91.95;102917.75;4884987;29;20127;-89
2022/01/13 09:23:07;;;;;;;37.40;23.35;;;;;;;2.19;92.79;102933.91;4900581;29;20147;-89
2022/01/13 09:25:34;;;;;;;34.83;22.23;;;;;;;2.10;92.32;102935.41;4901225;29;20056;-88
2022/01/13 09:28:07;;;;;;;32.80;21.15;;;;;;;2.10;92.46;102939.75;4901860;29;20060;-89
2022/01/13 09:30:34;;;;;;;34.67;22.33;;;;;;;1.95;92.78;102914.06;4907174;29;20092;-90
2022/01/13 09:33:01;;;;;;;30.60;19.80;;;;;;;2.18;90.54;102940.00;4902734;29;20066;-90
2022/01/13 09:35:29;;;;;;;27.75;18.30;;;;;;;2.11;90.23;102915.41;4901693;29;20647;-90
2022/01/13 09:37:56;;;;;;;29.95;19.77;;;;;;;2.20;90.50;102948.75;4901277;29;20099;-90
2022/01/13 09:40:23;;;;;;;31.90;20.83;;;;;;;2.23;91.17;102941.88;4901471;29;20096;-91
2022/01/13 09:42:51;;;;;;;35.40;22.20;;;;;;;2.04;91.10;102897.78;4898334;29;20066;-91
2022/01/13 09:45:19;;;;;;;33.67;21.55;;;;;;;2.26;90.70;102933.22;4884601;29;20484;-89
2022/01/13 09:47:50;;;;;;;35.17;22.00;;;;;;;2.19;90.49;102923.47;4893376;29;20468;-90
2022/01/13 09:50:36;;;;;;;;;;;;;;;;;;;;;
2022/01/13 09:53:10;;;;;;;34.83;20.38;;;;;;;2.27;90.33;102972.50;4894529;29;20053;-89
2022/01/13 09:58:26;;;;;;;32.67;21.63;;;;;;;2.11;91.49;102933.69;4964114;23;20060;-92
2022/01/13 10:10:20;;;;;;;28.45;19.42;;;;;;;2.25;89.48;102974.16;6032866;23;20424;31
2022/01/13 11:35:10;;;;;;;35.53;22.77;;;;;;;2.39;87.02;102881.31;3635519;23;21245;-90
2022/01/13 11:37:39;;;;;;;35.88;22.70;;;;;;;2.45;86.67;102889.31;4895290;29;20053;-90
2022/01/13 11:40:28;;;;;;;37.85;23.80;;;;;;;2.39;86.97;102885.66;4907656;29;20084;-91
2022/01/13 11:43:00;;;;;;;38.60;24.52;;;;;;;2.45;87.50;102914.59;4913622;29;20111;-91
2022/01/13 11:45:27;;;;;;;42.60;25.98;;;;;;;2.33;87.62;102880.28;4906859;29;20143;-91
2022/01/13 11:48:24;;;;;;;;;;;;;;;2.54;87.21;102899.13;4910814;29;20193;-91
2022/01/13 11:51:15;;;;;;;38.45;23.90;;;;;;;2.41;87.64;102887.47;4898944;29;19923;-91
2022/01/13 11:54:00;;;;;;;43.20;24.83;;;;;;;2.52;88.45;102897.34;4894193;29;20082;-92
2022/01/13 11:57:25;;;;;;;41.38;24.70;;;;;;;2.57;88.27;102893.97;4900377;29;20068;-90
2022/01/13 12:00:07;;;;;;;42.45;23.73;;;;;;;2.61;88.01;102889.72;4902025;29;20044;-92
2022/01/13 12:02:41;;;;;;;44.28;25.88;;;;;;;2.51;88.33;102877.25;4876255;29;20491;-91
2022/01/13 12:05:16;;;;;;;41.70;25.08;;;;;;;2.56;87.47;102891.31;4894418;29;20051;-91
2022/01/13 12:07:57;;;;;;;41.55;25.45;;;;;;;2.51;86.81;102890.34;4911887;29;20096;-90
2022/01/13 12:10:24;;;;;;;49.05;27.33;;;;;;;2.55;88.19;102881.69;4899380;29;20077;-89
2022/01/13 12:12:55;;;;;;;40.83;25.60;;;;;;;2.49;88.73;102866.75;4907694;29;20629;-91
2022/01/13 12:15:24;;;;;;;41.47;24.63;;;;;;;2.60;nan;102887.94;4900887;29;20194;-89
2022/01/13 12:18:04;;;;;;;43.28;25.88;;;;;;;2.49;88.11;102871.09;4898852;29;20053;-90
2022/01/13 12:20:46;;;;;;;44.78;25.15;;;;;;;2.64;88.07;102885.44;4885078;29;20488;-91
2022/01/13 12:23:39;;;;;;;37.63;24.23;;;;;;;2.80;86.82;102884.09;4920118;29;20048;-90
2022/01/13 12:26:34;;;;;;;39.40;23.90;;;;;;;2.75;87.29;102883.97;4903754;29;20080;-88
2022/01/13 12:29:18;;;;;;;39.22;23.30;;;;;;;2.58;87.95;102860.84;4918403;29;20040;-91
2022/01/13 12:32:06;;;;;;;41.92;24.38;;;;;;;2.70;87.90;102889.94;4906128;28;20461;-90
2022/01/13 12:34:33;;;;;;;39.45;24.67;;;;;;;2.69;87.55;102860.25;4891764;29;20048;-90
2022/01/13 12:37:19;;;;;;;37.47;23.80;;;;;;;2.68;86.72;102848.03;4889504;29;20048;-90
2022/01/13 12:40:13;;;;;;;43.60;23.50;;;;;;;2.73;86.10;102872.59;4888689;29;20491;-90
2022/01/13 12:42:52;;;;;;;40.15;24.75;;;;;;;2.76;87.29;102880.50;4905860;29;20056;-91
2022/01/13 12:45:31;;;;;;;39.72;25.40;;;;;;;2.62;87.26;102847.00;4903220;29;20076;-90
2022/01/13 12:48:05;;;;;;;43.15;25.15;;;;;;;2.64;86.60;102845.31;4911676;29;20040;-90
2022/01/13 12:50:37;;;;;;;39.20;24.70;;;;;;;2.79;86.53;102874.47;4885084;29;21321;-91
2022/01/13 12:53:12;;;;;;;44.00;25.00;;;;;;;2.62;87.33;102847.00;4893194;29;20049;-91
2022/01/13 12:55:56;;;;;;;40.45;25.00;;;;;;;2.65;86.71;102849.72;4902321;29;20479;-90
2022/01/13 12:58:31;;;;;;;48.33;28.15;;;;;;;2.49;87.02;102826.63;4895806;29;20049;-90
2022/01/13 13:01:04;;;;;;;41.80;26.10;;;;;;;2.60;86.42;102841.75;4889538;29;20068;-90
2022/01/13 13:03:32;;;;;;;44.95;25.77;;;;;;;2.51;87.71;102832.78;4890825;29;20484;-90
2022/01/13 13:06:17;;;;;;;40.42;25.38;;;;;;;2.74;88.25;102868.22;4885578;29;20052;-90
2022/01/13 13:09:14;;;;;;;42.00;25.00;;;;;;;2.41;87.66;102802.91;4895892;29;20476;-89
2022/01/13 13:11:50;;;;;;;40.15;24.25;;;;;;;2.43;87.46;102799.47;4897959;29;20052;-90
2022/01/13 13:17:30;;;;;;;37.10;23.15;;;;;;;2.75;86.69;102862.16;4890300;29;20414;-90
2022/01/13 13:20:04;;;;;;;38.42;22.13;;;;;;;2.67;86.90;102858.50;4892445;29;20080;-90
2022/01/13 13:22:51;;;;;;;40.30;23.55;;;;;;;2.43;89.24;102857.00;4888699;29;20052;-90
2022/01/13 13:25:40;;;;;;;38.90;23.20;;;;;;;2.48;89.13;102849.28;4889202;29;20048;-90
2022/01/13 13:28:18;;;;;;;;;;;;;;;2.57;88.50;102857.34;4888621;29;20041;-90
2022/01/13 13:30:47;;;;;;;42.13;24.50;;;;;;;2.40;88.71;102825.53;4888978;29;21494;-89
2022/01/13 13:34:05;;;;;;;41.38;23.27;;;;;;;2.28;89.53;102819.13;4890978;29;20412;-90
2022/01/13 13:36:41;;;;;;;41.80;22.90;;;;;;;2.30;89.11;102828.78;4887130;29;20154;-89
2022/01/13 13:39:31;;;;;;;39.53;23.70;;;;;;;2.38;89.40;102827.22;4886287;29;20045;-89
2022/01/13 13:42:43;;;;;;;43.30;23.75;;;;;;;2.55;88.39;102832.88;4888417;29;20063;-90
2022/01/13 13:45:12;;;;;;;41.95;24.10;;;;;;;2.60;87.52;102838.25;4888605;29;20049;-90
2022/01/13 13:47:52;;;;;;;46.05;26.85;;;;;;;2.62;87.99;102820.84;4889070;29;20059;-90
2022/01/13 13:50:19;;;;;;;41.17;24.48;;;;;;;2.65;86.52;102821.81;4889507;29;20058;-89
2022/01/13 13:52:46;;;;;;;44.47;25.63;;;;;;;2.69;88.04;102830.59;4887784;29;20044;-89
2022/01/13 13:55:14;;;;;;;42.97;25.98;;;;;;;2.71;88.04;102834.16;4895704;29;20166;-88
2022/01/13 13:57:41;;;;;;;40.22;25.23;;;;;;;2.64;87.20;102820.06;4901183;29;20141;-88
2022/01/13 14:00:10;;;;;;;45.75;26.17;;;;;;;2.57;87.99;102805.03;4892520;29;20084;-89
2022/01/13 14:02:38;;;;;;;43.53;26.85;;;;;;;2.69;88.30;102821.03;4883728;29;20048;-89
2022/01/13 14:05:07;;;;;;;43.25;26.13;;;;;;;2.77;86.51;102826.44;4883252;29;20076;-89
2022/01/13 14:07:38;;;;;;;41.42;25.05;;;;;;;2.50;87.47;102804.88;4882879;29;20119;-89
2022/01/13 14:10:08;;;;;;;43.42;25.73;;;;;;;2.47;88.04;102821.38;4884660;29;20385;-91
2022/01/13 14:13:00;;;;;;;51.13;29.13;;;;;;;2.40;89.61;102817.69;4887627;29;20633;-91
2022/01/13 14:15:48;;;;;;;49.75;29.02;;;;;;;2.33;88.85;102780.91;4890930;29;20076;-89
2022/01/13 14:18:28;;;;;;;51.17;30.50;;;;;;;2.44;88.29;102797.75;4900441;29;20075;-92
2022/01/13 14:21:00;;;;;;;;;;;;;;;2.56;88.27;102810.22;4905417;29;20512;-96
2022/01/13 14:23:30;;;;;;;46.63;27.05;;;;;;;2.46;88.66;102791.72;4892425;29;19995;-91
2022/01/13 14:26:07;;;;;;;52.95;30.13;;;;;;;2.54;88.57;102804.06;4891814;29;20041;-93
2022/01/13 14:28:51;;;;;;;51.38;28.58;;;;;;;2.50;nan;102812.72;4882630;29;20049;-92
2022/01/13 14:31:34;;;;;;;46.03;27.58;;;;;;;2.47;88.87;102810.91;5288031;23;20064;-93
2022/01/13 14:34:00;;;;;;;;;;;;;;;2.43;89.91;102809.94;4891894;29;21120;-92
2022/01/13 14:36:37;;;;;;;54.13;30.48;;;;;;;2.20;90.68;102779.75;4889866;29;20010;-92
2022/01/13 14:39:06;;;;;;;51.63;29.48;;;;;;;2.33;90.22;102797.50;4897097;29;20071;-90
2022/01/13 14:41:39;;;;;;;52.53;29.30;;;;;;;2.14;90.04;102760.38;4905847;29;20112;-91
2022/01/13 14:44:11;;;;;;;55.92;31.75;;;;;;;2.28;90.02;102774.69;4891513;29;20083;-91
2022/01/13 14:46:48;;;;;;;52.03;30.52;;;;;;;2.26;89.96;102777.25;4891953;29;21604;-89
2022/01/13 14:49:25;;;;;;;;;;;;;;;;;;;;;
2022/01/13 14:51:56;;;;;;;55.80;30.67;;;;;;;2.14;90.25;102747.31;4891267;29;20062;-91